Time;durP1;ratioP1;P1;durP2;ratioP2;P2;SDS_P1;SDS_P2;PMS_P1;PMS_P2;Temp;Humidity;BMP_temperature;BMP_pressure;BME280_temperature;BME280_humidity;BME280_pressure;Samples;Min_cycle;Max_cycle;Signal;HPM_P1;HPM_P2
2023/09/19 00:01:07;;;;;;;;;8.60;7.40;;;;;19.51;42.67;99190.59;5049888;28;9717;-69
2023/09/19 00:03:42;;;;;;;;;8.40;8.40;;;;;19.57;42.71;99176.03;5050321;28;8930;-68
2023/09/19 00:06:13;;;;;;;;;10.80;10.80;;;;;19.55;43.21;99171.75;5048977;28;8852;-70
2023/09/19 00:08:43;;;;;;;;;11.20;10.60;;;;;19.51;43.49;99149.72;5087177;28;8842;-70
2023/09/19 00:11:14;;;;;;;;;11.00;10.40;;;;;19.44;43.62;99151.06;5087023;28;8999;-71
2023/09/19 00:13:44;;;;;;;;;9.20;8.60;;;;;19.38;43.61;99143.47;5087406;28;8885;-71
2023/09/19 00:16:14;;;;;;;;;10.00;10.00;;;;;19.46;43.61;99151.84;5092868;28;8884;-69
2023/09/19 00:18:43;;;;;;;;;9.40;8.60;;;;;19.43;43.50;99154.72;5107582;28;8962;-69
2023/09/19 00:21:12;;;;;;;;;10.80;10.20;;;;;19.41;43.53;99154.81;5078844;28;8860;-68
2023/09/19 00:23:41;;;;;;;;;7.40;6.20;;;;;19.43;43.33;99154.72;5087087;28;8849;-70
2023/09/19 00:26:10;;;;;;;;;9.00;9.00;;;;;19.38;43.37;99149.66;5087159;28;9595;-69
2023/09/19 00:28:40;;;;;;;;;11.60;11.60;;;;;19.35;43.58;99155.19;5087231;28;8818;-68
2023/09/19 00:31:13;;;;;;;;;13.00;10.80;;;;;19.45;43.00;99150.97;5086852;28;8945;-72
2023/09/19 00:33:42;;;;;;;;;11.40;10.00;;;;;19.43;42.90;99152.91;5070065;28;8873;-69
2023/09/19 00:36:11;;;;;;;;;9.60;8.40;;;;;19.44;43.09;99153.75;5086009;28;8837;-68
2023/09/19 00:38:40;;;;;;;;;11.80;9.00;;;;;19.38;42.87;99148.81;5068909;28;9987;-68
2023/09/19 00:41:09;;;;;;;;;11.00;10.20;;;;;19.44;42.74;99148.41;5064821;28;8837;-68
2023/09/19 00:43:37;;;;;;;;;8.60;8.40;;;;;19.46;42.80;99147.38;5047981;28;8853;-68
2023/09/19 00:46:07;;;;;;;;;10.20;9.20;;;;;19.40;42.74;99152.22;5049021;28;8845;-70
2023/09/19 00:48:43;;;;;;;;;10.20;9.60;;;;;19.45;42.92;99155.47;5048902;28;9773;-67
2023/09/19 00:51:18;;;;;;;;;8.60;8.60;;;;;19.43;42.86;99152.03;5013718;28;8975;-70
2023/09/19 00:53:47;;;;;;;;;11.00;10.60;;;;;19.49;42.64;99149.81;5030139;28;8903;-71
2023/09/19 00:56:18;;;;;;;;;9.00;9.00;;;;;19.46;42.46;99142.03;5030614;28;8887;-69
2023/09/19 00:58:49;;;;;;;;;10.60;9.60;;;;;19.35;42.67;99143.66;5028997;28;8860;-69
2023/09/19 01:01:18;;;;;;;;;9.80;9.80;;;;;19.39;42.41;99145.22;5033650;28;9003;-69
2023/09/19 01:03:48;;;;;;;;;10.00;10.00;;;;;19.47;42.31;99145.56;5047486;28;8865;-69
2023/09/19 01:06:17;;;;;;;;;10.00;9.80;;;;;19.53;42.07;99142.53;5048770;28;8879;-70
2023/09/19 01:08:47;;;;;;;;;12.20;9.60;;;;;19.56;41.95;99139.66;5029770;28;8934;-70
2023/09/19 01:11:24;;;;;;;;;9.00;9.00;;;;;19.53;41.92;99137.19;5047342;28;8859;-68
2023/09/19 01:13:59;;;;;;;;;9.80;9.80;;;;;19.58;41.82;99139.56;5048602;28;8849;-68
2023/09/19 01:16:39;;;;;;;;;10.20;9.20;;;;;19.58;41.54;99140.41;5029518;28;8837;-69
2023/09/19 01:19:36;;;;;;;;;10.60;9.00;;;;;19.68;41.35;99154.84;5047169;28;8949;-70
2023/09/19 01:22:17;;;;;;;;;11.00;9.00;;;;;19.52;41.56;99149.66;5048241;28;8865;-70
2023/09/19 01:25:15;;;;;;;;;10.20;10.00;;;;;19.67;41.25;99141.66;5047648;28;8849;-69
2023/09/19 01:28:12;;;;;;;;;10.60;10.60;;;;;19.66;41.49;99143.44;5047264;28;8971;-68
2023/09/19 01:30:45;;;;;;;;;10.40;10.40;;;;;19.61;41.49;99136.69;4950638;28;8863;-69
2023/09/19 01:33:14;;;;;;;;;10.40;10.40;;;;;19.61;41.19;99132.22;4966981;28;8883;-69
2023/09/19 01:35:44;;;;;;;;;9.20;9.00;;;;;19.63;41.44;99137.44;4967163;28;8856;-69
2023/09/19 01:38:14;;;;;;;;;10.80;9.00;;;;;19.60;41.51;99141.19;4950909;28;8894;-69
2023/09/19 01:40:48;;;;;;;;;10.00;10.00;;;;;19.58;41.45;99136.91;4939435;28;8923;-68
2023/09/19 01:43:23;;;;;;;;;10.80;10.80;;;;;19.53;41.55;99131.84;4986458;28;8952;-69
2023/09/19 01:46:03;;;;;;;;;9.00;9.00;;;;;19.59;41.31;99138.59;4968900;28;8872;-70
2023/09/19 01:48:46;;;;;;;;;10.20;9.60;;;;;19.59;41.24;99141.28;4986065;28;8876;-69
2023/09/19 01:51:24;;;;;;;;;5.00;4.00;;;;;19.59;41.25;99139.44;4986009;28;8955;-68
2023/09/19 01:54:02;;;;;;;;;11.60;10.60;;;;;19.62;41.35;99141.09;4986278;28;8962;-69
2023/09/19 01:56:38;;;;;;;;;9.00;9.00;;;;;19.53;41.18;99134.53;4986245;28;8872;-70
2023/09/19 01:59:12;;;;;;;;;11.00;10.80;;;;;19.51;41.37;99129.28;4970096;28;8876;-70
2023/09/19 02:01:45;;;;;;;;;13.20;11.40;;;;;19.50;41.39;99124.03;4985081;28;8875;-70
2023/09/19 02:04:14;;;;;;;;;10.80;10.80;;;;;19.51;41.27;99118.63;4986174;28;8880;-69
2023/09/19 02:06:47;;;;;;;;;9.60;9.00;;;;;19.46;41.66;99120.72;4985876;28;8863;-68
2023/09/19 02:09:16;;;;;;;;;9.80;9.80;;;;;19.59;41.32;99120.78;5027869;28;8883;-68
2023/09/19 02:11:46;;;;;;;;;11.00;11.00;;;;;19.57;41.33;99111.19;5026862;28;8985;-70
2023/09/19 02:14:15;;;;;;;;;9.20;8.60;;;;;19.48;41.50;99112.59;4992937;28;8844;-68
2023/09/19 02:16:45;;;;;;;;;13.20;12.60;;;;;19.42;41.51;99116.50;5048389;28;8856;-69
2023/09/19 02:19:14;;;;;;;;;9.20;9.20;;;;;19.40;41.89;99117.59;5031401;28;8917;-68
2023/09/19 02:21:43;;;;;;;;;11.20;11.20;;;;;19.43;41.86;99120.91;5026618;28;8890;-69
2023/09/19 02:24:13;;;;;;;;;10.20;10.20;;;;;19.50;42.13;99116.91;5027872;28;8867;-68
2023/09/19 02:26:42;;;;;;;;;10.80;10.80;;;;;19.49;42.04;99112.50;5048374;28;8852;-69
2023/09/19 02:29:12;;;;;;;;;10.80;9.00;;;;;19.48;42.38;99118.81;5048396;28;8963;-67
2023/09/19 02:31:41;;;;;;;;;11.40;11.00;;;;;19.57;42.45;99122.69;5064057;28;8949;-69
2023/09/19 02:34:12;;;;;;;;;12.00;12.00;;;;;19.63;42.59;99121.44;5064985;28;8966;-69
2023/09/19 02:36:44;;;;;;;;;10.00;9.80;;;;;19.48;42.61;99109.94;5016201;28;8848;-68
2023/09/19 02:39:12;;;;;;;;;10.40;10.00;;;;;19.55;42.62;99121.09;5064604;28;9656;-69
2023/09/19 02:41:42;;;;;;;;;11.00;11.00;;;;;19.57;42.81;99116.53;5065129;28;9589;-74
2023/09/19 02:44:11;;;;;;;;;11.40;11.40;;;;;19.56;42.55;99115.69;5065065;28;8872;-68
2023/09/19 02:46:42;;;;;;;;;10.20;10.20;;;;;19.65;42.62;99114.19;5063954;28;8846;-69
2023/09/19 02:49:13;;;;;;;;;9.20;9.20;;;;;19.63;42.70;99110.78;5064979;28;8929;-69
2023/09/19 02:51:42;;;;;;;;;13.60;11.40;;;;;19.53;43.03;99115.84;5064744;28;8872;-70
2023/09/19 02:54:11;;;;;;;;;13.20;12.20;;;;;19.65;43.71;99117.75;5064697;28;8866;-70
2023/09/19 02:56:40;;;;;;;;;13.80;12.60;;;;;19.52;44.33;99114.16;5050378;28;8846;-72
2023/09/19 02:59:10;;;;;;;;;12.60;11.20;;;;;19.50;44.37;99116.91;5026485;28;8889;-69
2023/09/19 03:01:39;;;;;;;;;9.00;9.00;;;;;19.51;44.69;99107.06;5046460;28;8941;-68
2023/09/19 03:04:11;;;;;;;;;13.20;11.60;;;;;19.44;44.69;99116.41;5025335;28;8856;-69
2023/09/19 03:06:41;;;;;;;;;10.40;9.60;;;;;19.41;45.28;99114.81;5068266;28;8826;-68
2023/09/19 03:09:13;;;;;;;;;12.60;12.00;;;;;19.45;45.21;99118.16;5051667;28;8875;-69
2023/09/19 03:11:46;;;;;;;;;12.80;12.00;;;;;19.34;45.50;99102.84;5051532;28;8893;-69
2023/09/19 03:14:15;;;;;;;;;11.20;11.20;;;;;19.33;45.26;99083.34;5051594;28;8838;-68
2023/09/19 03:16:45;;;;;;;;;14.00;13.40;;;;;19.29;45.34;99068.50;5051507;28;8915;-69
2023/09/19 03:19:16;;;;;;;;;10.80;10.60;;;;;19.17;45.30;99069.28;5003665;28;8861;-70
2023/09/19 03:21:49;;;;;;;;;14.20;13.40;;;;;19.15;45.17;99041.03;5050360;28;8854;-68
2023/09/19 03:24:18;;;;;;;;;10.20;10.20;;;;;19.11;45.33;99045.72;5051593;28;8857;-70
2023/09/19 03:26:47;;;;;;;;;11.40;10.80;;;;;19.15;45.14;99047.22;5051460;28;8841;-68
2023/09/19 03:29:17;;;;;;;;;12.60;11.00;;;;;19.13;45.02;99049.13;5051184;28;8857;-69
2023/09/19 03:31:47;;;;;;;;;10.00;9.40;;;;;19.15;44.88;99049.03;5051286;28;8837;-69
2023/09/19 03:34:16;;;;;;;;;16.00;14.60;;;;;19.20;44.66;99047.78;5035119;28;8980;-68
2023/09/19 03:36:47;;;;;;;;;9.40;9.40;;;;;19.26;44.45;99039.38;5050849;28;8888;-69
2023/09/19 03:39:16;;;;;;;;;18.60;18.60;;;;;19.36;44.27;99042.28;5047805;28;9723;-69
2023/09/19 03:41:46;;;;;;;;;12.00;12.00;;;;;19.24;44.46;99046.63;5050016;28;8852;-69
2023/09/19 03:44:15;;;;;;;;;11.00;11.00;;;;;19.25;44.68;99032.38;5049337;28;9603;-68
2023/09/19 03:46:44;;;;;;;;;12.80;12.80;;;;;19.29;44.48;99027.66;5048726;28;8853;-71
2023/09/19 03:49:12;;;;;;;;;11.00;10.40;;;;;19.35;44.13;99029.06;5048906;28;8865;-70
2023/09/19 03:51:42;;;;;;;;;12.20;11.20;;;;;19.30;44.37;99032.03;5049968;28;8857;-69
2023/09/19 03:54:12;;;;;;;;;12.00;12.00;;;;;19.35;44.47;99029.06;5049052;28;8873;-69
2023/09/19 03:56:41;;;;;;;;;20.80;19.80;;;;;19.37;44.03;99033.34;5034278;28;8854;-69
2023/09/19 03:59:10;;;;;;;;;12.00;12.00;;;;;19.38;44.22;99039.53;5068802;28;8933;-69
2023/09/19 04:01:41;;;;;;;;;11.20;10.20;;;;;19.47;43.90;99031.78;5085275;28;8853;-71
2023/09/19 04:04:09;;;;;;;;;13.40;13.40;;;;;19.47;44.12;99036.28;5068690;28;8842;-69
2023/09/19 04:06:38;;;;;;;;;13.60;12.60;;;;;19.47;43.77;99042.44;5068442;28;8885;-69
2023/09/19 04:09:08;;;;;;;;;11.60;10.80;;;;;19.57;43.90;99041.88;5015999;28;9646;-70
2023/09/19 04:11:41;;;;;;;;;23.20;21.60;;;;;19.52;43.72;99044.84;5047472;28;9597;-70
2023/09/19 04:14:09;;;;;;;;;10.00;9.40;;;;;19.37;44.42;99052.00;5049828;28;8860;-70
2023/09/19 04:16:38;;;;;;;;;11.40;11.40;;;;;19.55;43.96;99051.78;5048407;28;8845;-67
2023/09/19 04:19:08;;;;;;;;;11.80;11.60;;;;;19.57;43.77;99064.03;5048178;28;8935;-68
2023/09/19 04:21:37;;;;;;;;;12.40;11.80;;;;;19.69;43.45;99079.25;5030735;28;8938;-69
2023/09/19 04:24:06;;;;;;;;;13.40;12.60;;;;;19.67;43.36;99077.66;4982322;28;9019;-68
2023/09/19 04:26:36;;;;;;;;;19.80;15.40;;;;;19.62;43.63;99087.75;5029942;28;8841;-70
2023/09/19 04:29:06;;;;;;;;;15.80;15.00;;;;;19.66;43.54;99095.44;5048011;28;8876;-69
2023/09/19 04:31:37;;;;;;;;;11.00;10.60;;;;;19.65;43.56;99101.75;5049477;28;8860;-68
2023/09/19 04:34:06;;;;;;;;;13.60;13.60;;;;;19.69;43.46;99094.41;5048985;28;8970;-69
2023/09/19 04:36:36;;;;;;;;;14.40;11.80;;;;;19.63;43.61;99090.31;5049507;28;9068;-68
2023/09/19 04:39:07;;;;;;;;;12.80;11.40;;;;;19.66;43.67;99094.59;5048362;28;8944;-72
2023/09/19 04:41:36;;;;;;;;;12.40;12.40;;;;;19.63;43.85;99094.78;5047393;28;8923;-68
2023/09/19 04:44:07;;;;;;;;;12.40;12.40;;;;;19.65;43.84;99087.53;5031353;28;8859;-70
2023/09/19 04:46:36;;;;;;;;;15.00;13.80;;;;;19.75;43.45;99088.66;5029250;28;8866;-70
2023/09/19 04:49:05;;;;;;;;;10.00;10.00;;;;;19.68;43.76;99080.19;5066440;28;8858;-69
2023/09/19 04:51:36;;;;;;;;;16.00;15.20;;;;;19.69;43.60;99089.06;5065958;28;9661;-70
2023/09/19 04:54:05;;;;;;;;;14.60;14.60;;;;;19.66;43.82;99083.94;5068239;28;8866;-70
2023/09/19 04:56:34;;;;;;;;;14.20;13.00;;;;;19.69;43.56;99091.72;5031481;28;8830;-69
2023/09/19 04:59:04;;;;;;;;;12.20;12.20;;;;;19.67;43.67;99081.16;5046776;28;8872;-70
2023/09/19 05:01:35;;;;;;;;;10.60;10.60;;;;;19.64;43.82;99089.34;5040736;28;8871;-70
2023/09/19 05:04:05;;;;;;;;;15.20;13.00;;;;;19.65;43.84;99099.06;5048088;28;8942;-69
2023/09/19 05:06:35;;;;;;;;;14.00;13.00;;;;;19.75;43.46;99112.66;5047852;28;8845;-69
2023/09/19 05:09:05;;;;;;;;;13.40;11.20;;;;;19.75;43.57;99119.81;5029271;28;8999;-70
2023/09/19 05:11:34;;;;;;;;;16.40;15.60;;;;;19.77;43.68;99112.56;5013618;28;8911;-79
2023/09/19 05:14:03;;;;;;;;;14.80;12.20;;;;;19.73;43.50;99109.22;5048539;28;8872;-83
2023/09/19 05:16:34;;;;;;;;;12.40;12.40;;;;;19.68;43.67;99112.19;5014671;28;9870;-81
2023/09/19 05:19:04;;;;;;;;;14.20;13.00;;;;;19.70;43.73;99107.59;5064109;28;8962;-77
2023/09/19 05:21:34;;;;;;;;;14.80;14.80;;;;;19.61;44.00;99110.91;5049251;28;8877;-80
2023/09/19 05:24:03;;;;;;;;;13.40;11.80;;;;;19.62;44.17;99112.59;5070168;28;8935;-82
2023/09/19 05:26:32;;;;;;;;;12.80;12.80;;;;;19.67;44.17;99107.81;5087695;28;8864;-82
2023/09/19 05:29:03;;;;;;;;;13.00;12.60;;;;;19.69;44.04;99119.25;5022580;28;8859;-79
2023/09/19 05:31:32;;;;;;;;;13.80;12.80;;;;;19.64;44.14;99112.50;5121148;28;8870;-79
2023/09/19 05:34:01;;;;;;;;;15.20;15.20;;;;;19.64;44.18;99100.00;5067504;28;8870;-80
2023/09/19 05:36:31;;;;;;;;;14.40;14.40;;;;;19.66;44.22;99092.78;5088413;28;8877;-79
2023/09/19 05:39:01;;;;;;;;;13.80;13.40;;;;;19.60;44.17;99087.84;5038068;28;8892;-79
2023/09/19 05:41:30;;;;;;;;;11.60;11.60;;;;;19.61;44.21;99094.91;5083453;28;8857;-79
2023/09/19 05:43:59;;;;;;;;;15.40;15.40;;;;;19.41;45.01;99084.66;5070137;28;9608;-79
2023/09/19 05:46:32;;;;;;;;;15.80;14.20;;;;;19.41;44.80;99088.16;5068148;28;8842;-69
2023/09/19 05:49:01;;;;;;;;;13.40;13.20;;;;;19.38;45.22;99096.34;5036105;28;8954;-69
2023/09/19 05:51:31;;;;;;;;;12.60;12.20;;;;;19.41;45.47;99093.50;5091489;28;8892;-72
2023/09/19 05:54:00;;;;;;;;;16.00;14.60;;;;;19.47;45.29;99085.09;5105835;28;8879;-70
2023/09/19 05:56:29;;;;;;;;;16.20;15.80;;;;;19.43;45.46;99078.25;5066341;28;8949;-69
2023/09/19 05:58:57;;;;;;;;;11.60;10.80;;;;;19.40;45.75;99086.44;5067811;28;8862;-69
2023/09/19 06:01:27;;;;;;;;;15.20;13.40;;;;;19.39;45.63;99082.09;5067318;28;8862;-70
2023/09/19 06:03:55;;;;;;;;;14.20;14.20;;;;;19.44;45.35;99087.97;5049111;28;8896;-69
2023/09/19 06:06:24;;;;;;;;;13.80;13.80;;;;;19.55;45.45;99094.44;5047824;28;8861;-69
2023/09/19 06:08:54;;;;;;;;;16.40;15.40;;;;;19.56;45.11;99093.50;5047833;28;9057;-69
2023/09/19 06:11:26;;;;;;;;;16.40;14.00;;;;;19.67;44.72;99091.81;5047473;28;8885;-70
2023/09/19 06:13:55;;;;;;;;;11.80;10.60;;;;;19.68;45.18;99087.34;5047175;28;8899;-69
2023/09/19 06:16:25;;;;;;;;;15.00;13.80;;;;;19.77;45.12;99088.56;5045339;28;8857;-70
2023/09/19 06:18:55;;;;;;;;;16.40;16.40;;;;;19.80;45.42;99096.34;5047587;28;8837;-68
2023/09/19 06:21:26;;;;;;;;;13.80;13.80;;;;;19.90;45.03;99087.63;5046661;28;8857;-68
2023/09/19 06:23:57;;;;;;;;;15.00;14.40;;;;;20.12;44.82;99099.50;5046318;28;8859;-67
2023/09/19 06:26:28;;;;;;;;;16.80;15.80;;;;;20.31;44.45;99100.94;5046512;28;8860;-68
2023/09/19 06:28:57;;;;;;;;;16.00;15.60;;;;;20.45;43.70;99098.19;5046233;28;9023;-78
2023/09/19 06:31:26;;;;;;;;;15.00;15.00;;;;;20.49;43.82;99089.84;5046648;28;9630;-79
2023/09/19 06:33:55;;;;;;;;;18.20;15.80;;;;;20.55;43.62;99087.72;5048163;28;8865;-78
2023/09/19 06:36:24;;;;;;;;;16.60;16.00;;;;;20.61;43.36;99098.81;5050238;28;8853;-79
2023/09/19 06:38:53;;;;;;;;;15.00;14.60;;;;;20.79;43.20;99102.03;5017164;28;9686;-79
2023/09/19 06:41:24;;;;;;;;;16.80;16.00;;;;;20.95;42.97;99112.50;5049381;28;8854;-78
2023/09/19 06:43:54;;;;;;;;;14.00;13.20;;;;;21.05;42.34;99105.56;5016219;28;8867;-78
2023/09/19 06:46:24;;;;;;;;;15.40;15.20;;;;;21.17;42.27;99097.63;5035512;28;8858;-79
2023/09/19 06:48:53;;;;;;;;;13.60;13.60;;;;;21.24;41.90;99101.56;5058445;28;8878;-77
2023/09/19 06:51:22;;;;;;;;;16.20;14.80;;;;;21.33;41.83;99100.84;5053767;28;8881;-77
2023/09/19 06:53:54;;;;;;;;;14.40;14.20;;;;;21.32;42.05;99101.84;5049241;28;8851;-75
2023/09/19 06:56:25;;;;;;;;;14.60;13.80;;;;;21.39;41.99;99107.56;5016780;28;8872;-77
2023/09/19 06:58:54;;;;;;;;;14.60;14.60;;;;;21.45;41.85;99108.00;5048456;28;8842;-75
2023/09/19 07:01:23;;;;;;;;;14.20;13.20;;;;;21.63;41.66;99110.31;5048256;28;8861;-78
2023/09/19 07:03:53;;;;;;;;;14.40;13.40;;;;;21.73;41.50;99110.47;5048234;28;8869;-76
2023/09/19 07:06:22;;;;;;;;;14.40;14.40;;;;;21.84;41.29;99115.88;4999351;28;8850;-76
2023/09/19 07:08:51;;;;;;;;;16.60;15.00;;;;;21.88;40.75;99122.72;5015775;28;8975;-77
2023/09/19 07:11:21;;;;;;;;;16.00;15.40;;;;;21.91;41.18;99110.94;5015739;28;9717;-79
2023/09/19 07:13:51;;;;;;;;;16.00;16.00;;;;;22.08;40.78;99123.03;5051390;28;8875;-77
2023/09/19 07:16:29;;;;;;;;;16.20;15.20;;;;;22.22;40.78;99130.84;5048206;28;8889;-76
2023/09/19 07:18:58;;;;;;;;;12.00;12.00;;;;;22.30;40.37;99138.38;5049505;28;8892;-76
2023/09/19 07:21:27;;;;;;;;;13.80;13.80;;;;;22.49;40.09;99138.66;5050444;28;8862;-76
2023/09/19 07:23:56;;;;;;;;;18.60;17.40;;;;;22.55;39.92;99138.16;5033457;28;8854;-76
2023/09/19 07:26:25;;;;;;;;;14.80;14.80;;;;;22.72;39.72;99142.22;5032302;28;8865;-77
2023/09/19 07:28:57;;;;;;;;;14.40;14.40;;;;;22.92;39.48;99134.44;5048571;28;8846;-76
2023/09/19 07:31:27;;;;;;;;;14.80;14.60;;;;;23.08;39.10;99139.47;5048677;28;8854;-78
2023/09/19 07:33:55;;;;;;;;;13.20;12.80;;;;;23.09;39.10;99131.31;5015633;28;8865;-75
2023/09/19 07:36:25;;;;;;;;;13.60;13.40;;;;;23.23;38.58;99129.34;5049020;28;8854;-77
2023/09/19 07:38:54;;;;;;;;;13.80;13.20;;;;;23.25;38.79;99122.88;5048809;28;8858;-77
2023/09/19 07:41:34;;;;;;;;;15.60;15.40;;;;;23.42;38.34;99117.97;5031986;28;8854;-78
2023/09/19 07:44:05;;;;;;;;;14.60;13.80;;;;;23.39;38.60;99127.09;5031634;28;8952;-79
2023/09/19 07:46:34;;;;;;;;;18.60;17.60;;;;;23.39;38.32;99136.03;5048687;28;8865;-78
2023/09/19 07:49:03;;;;;;;;;14.20;13.40;;;;;23.55;38.33;99140.16;5050871;28;8868;-76
2023/09/19 07:51:32;;;;;;;;;17.20;16.80;;;;;23.60;37.93;99139.78;5050378;28;8873;-76
2023/09/19 07:54:01;;;;;;;;;16.00;15.60;;;;;23.61;38.14;99146.88;5065513;28;8957;-76
2023/09/19 07:56:30;;;;;;;;;13.40;13.40;;;;;23.75;37.62;99150.13;5050104;28;8857;-77
2023/09/19 07:58:59;;;;;;;;;14.60;14.20;;;;;23.88;37.91;99146.41;5048987;28;8914;-77
2023/09/19 08:01:30;;;;;;;;;18.20;16.80;;;;;24.03;37.29;99150.50;5050777;28;8869;-77
2023/09/19 08:03:58;;;;;;;;;15.80;15.20;;;;;24.04;37.16;99148.69;5057564;28;8965;-76
2023/09/19 08:06:30;;;;;;;;;13.60;13.60;;;;;24.22;37.29;99157.03;5060191;28;8968;-78
2023/09/19 08:09:00;;;;;;;;;17.40;16.80;;;;;24.36;37.34;99148.69;5052255;28;8864;-78
2023/09/19 08:11:31;;;;;;;;;15.80;15.80;;;;;24.52;36.89;99158.94;5051182;28;8849;-77
2023/09/19 08:14:00;;;;;;;;;15.00;15.00;;;;;24.53;36.41;99163.34;5065334;28;8980;-78
2023/09/19 08:16:31;;;;;;;;;15.40;13.60;;;;;24.73;36.50;99170.56;5050047;28;8830;-78
2023/09/19 08:19:00;;;;;;;;;15.40;14.40;;;;;24.80;35.99;99168.22;5065189;28;8864;-78
2023/09/19 08:21:29;;;;;;;;;17.20;17.20;;;;;24.87;35.80;99165.84;5050035;28;8829;-79
2023/09/19 08:23:58;;;;;;;;;12.60;12.60;;;;;25.05;35.88;99171.44;5065333;28;8861;-77
2023/09/19 08:26:29;;;;;;;;;15.40;15.40;;;;;25.02;35.60;99175.25;5014875;28;9409;-79
2023/09/19 08:28:57;;;;;;;;;15.20;15.00;;;;;25.19;35.74;99172.91;5048886;28;8888;-77
2023/09/19 08:31:27;;;;;;;;;16.60;14.60;;;;;25.31;35.27;99174.53;5031951;28;8849;-79
2023/09/19 08:33:57;;;;;;;;;14.80;14.20;;;;;25.38;35.17;99170.34;5014843;28;8864;-77
2023/09/19 08:36:26;;;;;;;;;15.40;14.60;;;;;25.57;34.93;99171.38;4983386;28;8853;-77
2023/09/19 08:38:55;;;;;;;;;18.40;18.40;;;;;25.73;34.44;99176.22;5049784;28;8927;-79
2023/09/19 08:41:24;;;;;;;;;15.40;15.40;;;;;25.93;34.64;99169.03;5014558;28;8865;-79
2023/09/19 08:43:52;;;;;;;;;15.60;14.40;;;;;26.08;34.56;99173.88;5048944;28;8856;-77
2023/09/19 08:46:26;;;;;;;;;15.60;14.60;;;;;26.17;33.96;99169.47;5049683;28;9650;-78
2023/09/19 08:49:05;;;;;;;;;13.20;13.20;;;;;26.40;33.56;99163.78;5032146;28;8874;-78
2023/09/19 08:51:44;;;;;;;;;14.20;14.20;;;;;26.51;33.50;99165.53;5048734;28;8850;-76
2023/09/19 08:54:23;;;;;;;;;16.20;15.20;;;;;26.54;33.78;99165.25;5047509;28;8940;-77
2023/09/19 08:56:54;;;;;;;;;13.20;13.00;;;;;26.60;33.53;99165.50;5047389;28;8937;-78
2023/09/19 08:59:26;;;;;;;;;13.20;13.20;;;;;26.66;33.37;99169.47;5049365;28;8880;-78
2023/09/19 09:01:57;;;;;;;;;14.80;13.80;;;;;26.63;33.37;99170.63;5066528;28;8900;-77
2023/09/19 09:04:28;;;;;;;;;15.00;13.80;;;;;26.74;33.44;99166.91;5016479;28;9074;-76
2023/09/19 09:06:58;;;;;;;;;16.60;16.20;;;;;26.78;33.34;99172.88;5045989;28;9701;-77
2023/09/19 09:09:29;;;;;;;;;14.60;14.60;;;;;26.82;33.28;99171.56;5030534;28;8870;-76
2023/09/19 09:11:59;;;;;;;;;13.40;13.40;;;;;26.80;32.92;99169.00;5049684;28;8842;-79
2023/09/19 09:14:29;;;;;;;;;13.00;13.00;;;;;26.63;33.40;99167.91;5046207;28;8890;-76
2023/09/19 09:16:59;;;;;;;;;14.00;14.00;;;;;26.55;33.53;99164.22;5053495;28;9734;-80
2023/09/19 09:19:31;;;;;;;;;11.60;11.60;;;;;26.60;33.46;99167.34;5066554;28;9615;-77
2023/09/19 09:22:08;;;;;;;;;13.40;13.00;;;;;26.67;33.49;99155.00;5049309;28;8832;-77
2023/09/19 09:24:39;;;;;;;;;14.60;13.40;;;;;26.64;33.64;99152.59;5054810;28;8868;-75
2023/09/19 09:27:10;;;;;;;;;14.80;14.80;;;;;26.77;33.37;99149.56;5074741;28;8840;-77
2023/09/19 09:29:43;;;;;;;;;13.00;13.00;;;;;26.82;33.03;99153.53;5067814;28;8867;-78
2023/09/19 09:32:23;;;;;;;;;15.80;14.40;;;;;26.85;33.43;99152.38;5046782;28;8930;-78
2023/09/19 09:34:54;;;;;;;;;12.80;12.20;;;;;26.79;33.22;99147.59;5064441;28;8857;-76
2023/09/19 09:37:29;;;;;;;;;16.00;14.80;;;;;26.75;33.32;99138.94;5048550;28;8841;-79
2023/09/19 09:40:19;;;;;;;;;17.40;16.40;;;;;26.94;33.24;99147.97;5047297;28;8849;-79
2023/09/19 09:42:52;;;;;;;;;13.80;13.00;;;;;27.05;33.04;99145.13;5048822;28;8907;-77
2023/09/19 09:45:28;;;;;;;;;13.20;13.20;;;;;27.12;33.16;99146.22;5048347;28;8844;-77
2023/09/19 09:47:56;;;;;;;;;16.00;14.80;;;;;27.22;32.77;99155.09;5048644;28;8874;-77
2023/09/19 09:50:44;;;;;;;;;18.60;16.20;;;;;27.24;33.01;99153.09;5048877;28;8869;-78
2023/09/19 09:53:25;;;;;;;;;15.40;14.80;;;;;27.45;32.63;99142.06;5048740;28;9022;-77
2023/09/19 09:56:05;;;;;;;;;15.60;13.80;;;;;27.53;32.60;99144.00;5048846;28;8869;-78
2023/09/19 09:58:36;;;;;;;;;16.00;14.80;;;;;27.47;32.51;99150.00;5048256;28;8864;-80
2023/09/19 10:01:10;;;;;;;;;17.40;13.20;;;;;27.56;32.74;99150.97;5048113;28;9754;-80
2023/09/19 10:03:41;;;;;;;;;19.40;16.20;;;;;27.66;32.29;99142.81;5048285;28;8880;-76
2023/09/19 10:09:10;;;;;;;;;17.60;17.20;;;;;27.77;32.10;99142.59;4991033;28;8860;-81
2023/09/19 10:11:44;;;;;;;;;4.00;1.20;;;;;27.72;32.27;99142.22;4994124;28;8888;-78
2023/09/19 10:14:16;;;;;;;;;11.20;10.20;;;;;27.71;32.22;99148.63;4977981;28;8875;-77
2023/09/19 10:16:47;;;;;;;;;15.00;15.00;;;;;27.80;32.34;99145.84;4994090;28;8856;-78
2023/09/19 10:19:24;;;;;;;;;18.00;17.20;;;;;27.96;32.12;99139.75;5011504;28;8860;-78
2023/09/19 10:21:58;;;;;;;;;16.00;15.20;;;;;28.05;31.81;99139.84;4994966;28;8867;-76
2023/09/19 10:24:30;;;;;;;;;16.60;15.60;;;;;28.10;31.70;99145.59;5010555;28;8864;-78
2023/09/19 10:27:00;;;;;;;;;16.20;16.00;;;;;28.15;31.27;99149.56;4993740;28;8867;-80
2023/09/19 10:29:35;;;;;;;;;21.00;19.00;;;;;28.22;31.54;99147.13;5010396;28;8841;-78
2023/09/19 10:32:06;;;;;;;;;15.40;15.20;;;;;28.24;31.74;99145.09;5009474;28;8844;-77
2023/09/19 10:34:37;;;;;;;;;17.00;16.00;;;;;28.13;31.79;99140.78;4992992;28;8856;-77
2023/09/19 10:37:09;;;;;;;;;19.00;19.00;;;;;27.97;31.77;99132.50;4992955;28;9955;-76
2023/09/19 10:39:41;;;;;;;;;18.40;17.00;;;;;28.00;31.42;99126.78;4961706;28;8871;-78
2023/09/19 10:42:17;;;;;;;;;17.20;16.80;;;;;28.10;31.58;99132.09;4992662;28;8884;-79
2023/09/19 10:44:49;;;;;;;;;16.60;16.00;;;;;28.00;31.88;99124.91;4992606;28;8860;-76
2023/09/19 10:47:19;;;;;;;;;18.20;17.20;;;;;28.07;31.45;99121.63;5045793;28;8869;-80
2023/09/19 10:49:48;;;;;;;;;17.40;16.80;;;;;28.13;31.36;99119.16;5051352;28;8849;-76
2023/09/19 10:52:26;;;;;;;;;17.60;16.00;;;;;28.17;31.26;99107.03;5033174;28;8873;-77
2023/09/19 10:54:59;;;;;;;;;17.40;15.80;;;;;28.15;31.11;99108.19;5051475;28;8906;-77
2023/09/19 10:57:28;;;;;;;;;18.00;18.00;;;;;28.18;31.22;99106.03;5054745;28;8915;-77
2023/09/19 11:00:21;;;;;;;;;18.40;18.40;;;;;28.30;30.96;99101.22;5056406;28;8922;-78
2023/09/19 11:03:20;;;;;;;;;17.60;15.60;;;;;28.35;31.35;99095.34;5017669;28;8980;-76
2023/09/19 11:06:18;;;;;;;;;19.00;16.40;;;;;28.51;31.21;99091.91;5051201;28;8889;-78
2023/09/19 11:11:50;;;;;;;;;20.20;20.20;;;;;28.31;31.44;99094.81;4949770;28;8858;-78
2023/09/19 11:14:46;;;;;;;;;15.40;14.60;;;;;28.48;30.79;99089.50;4934238;28;8866;-78
2023/09/19 11:17:45;;;;;;;;;19.40;18.00;;;;;28.63;31.43;99097.88;4912192;29;8875;-78
2023/09/19 11:20:35;;;;;;;;;21.20;20.60;;;;;28.63;30.89;99090.63;4911265;29;8879;-77
2023/09/19 11:23:26;;;;;;;;;16.40;16.40;;;;;28.88;31.14;99090.78;4912593;29;8852;-76
2023/09/19 11:25:57;;;;;;;;;20.20;19.40;;;;;28.87;30.56;99086.38;4911997;29;8863;-77
2023/09/19 11:28:38;;;;;;;;;19.60;17.20;;;;;29.02;30.21;99083.91;4896569;29;8867;-78
2023/09/19 11:31:55;;;;;;;;;17.00;17.00;;;;;29.24;29.90;99098.75;4892618;29;8899;-78
2023/09/19 11:34:44;;;;;;;;;16.40;14.60;;;;;29.30;29.41;99098.09;4837064;29;8944;-78
2023/09/19 11:38:09;;;;;;;;;17.80;17.80;;;;;29.51;29.35;99098.47;4837327;29;9089;-80
2023/09/19 11:40:39;;;;;;;;;19.20;16.40;;;;;29.58;29.31;99093.25;4837473;29;8910;-77
2023/09/19 11:43:33;;;;;;;;;15.00;15.00;;;;;29.86;29.53;99087.53;4831968;29;8895;-77
2023/09/19 11:46:06;;;;;;;;;17.00;14.60;;;;;29.72;29.30;99099.91;4930588;29;8995;-79
2023/09/19 11:48:38;;;;;;;;;17.80;16.60;;;;;29.80;28.80;99102.59;4930978;29;8943;-76
2023/09/19 11:51:27;;;;;;;;;18.40;17.40;;;;;29.79;28.38;99100.94;4930861;29;8856;-78
2023/09/19 11:53:59;;;;;;;;;15.80;15.60;;;;;29.74;28.23;99090.56;4961683;28;8885;-78
2023/09/19 11:56:31;;;;;;;;;18.20;17.80;;;;;29.65;28.53;99074.47;4969028;28;8865;-78